Notice: Undefined index: language in /home/u908952976/domains/airgaviota-va.com/public_html/vam/index.php on line 25
AirGaviota-VA

... VIRTUAL FLIGHT...OUR PASSION



 FLIGHT DETAILS
Pilot: GVT462 Peter Voksan Aircraft: REDEYES - ANTONOV AN-2 (32V_64B) AN-2-GAVIOTAAIRVAAEROTAXI Distance: 79NM
Departure MUNG Arrival MUCL Duration 00:53
Validation Validated Type Regular Tail Number GV-AET
ZFW 4085 Block Fuel/Initial FOB 90/0 Flight Fuel 73
Passengers 9 Cargo 1900 Alternate MUCF
Departure Time Cruise Speed 100 Flight Level
Flight Type IFR Aircraft Type AN2 Weight Unit Kg
Date 26-04-2020 Pilot Comments Network IVAO
Crashed No Validator Comments Flight Rating 70

 ROUTE
ROUTE DCT
REMARKS
 FLIGHT FAILURES
Crashed OK Beacon off & Engine Running Fail KIAS Above 250 below 10000 FT OK
Lights OFF below 10000 FT OK Lights ON above 10000 FT OK Stall OK
Overspeed OK Flight paused OK Refueling OK
Slew detected OK Taxi & Taxi lights off OK Take off & lights off OK
Landing & lights off OK Landed in not planned airport OK Taxi Speed OK
Wrong altimeter in Take off OK Wrong altimeter in Landing OK
 LANDING ANALYSIS
Landing wind 99º/1 kt Landing heading 2
Landing VS: -43.83 ft/min Landing IAS: 52.15 kt
Landing Force G 1 G Landing Bank -0.9
Landing Pitch 2.4 Landing Flaps 0
Navigation Lights ON Landing Lights ON
Beacon Lights OFF Strobe Lights OFF
 FLIGHT MAP
 ALTITUDE CHART
 FLIGHT FINANCIAL REPORT
Cargo:1900 .Price per Cargo Unit:15 28,500.00
Number of PAX:9 .Price per PAX:102 918.00
TOTAL 29,418.00
 MAIN EVENTS
DATE EVENTIASALTITUDE
2020-04-26 16:30:09 SIM ACARS version 1.4.1089
2020-04-26 16:30:09 BOARDING089
2020-04-26 16:30:50 STARTING ENGINE 1 089
2020-04-26 16:30:51 BEACON LIGHT OFF & ENGINE ON089
2020-04-26 16:35:00 FLAPS EXTENSION 4 % 089
2020-04-26 16:35:00 FLAPS EXTENSION 6 % 089
2020-04-26 16:35:01 FLAPS EXTENSION 9 % 089
2020-04-26 16:35:01 FLAPS EXTENSION 11 % 089
2020-04-26 16:35:01 FLAPS EXTENSION 13 % 089
2020-04-26 16:35:01 FLAPS EXTENSION 16 % 089
2020-04-26 16:35:02 FLAPS EXTENSION 18 % 089
2020-04-26 16:35:02 FLAPS EXTENSION 20 % 089
2020-04-26 16:35:02 FLAPS EXTENSION 23 % 089
2020-04-26 16:35:02 FLAPS EXTENSION 25 % 089
2020-04-26 16:35:02 FLAPS EXTENSION 28 % 089
2020-04-26 16:35:03 FLAPS EXTENSION 30 % 089
2020-04-26 16:35:03 FLAPS EXTENSION 33 % 089
2020-04-26 16:35:03 FLAPS EXTENSION 35 % 089
2020-04-26 16:35:03 FLAPS EXTENSION 36 % 089
2020-04-26 16:37:05 TAXI TO THE RWY 989
2020-04-26 16:43:28 ROLLING FOR TAKE OFF4489
2020-04-26 16:43:32 TAKE OFF5293
2020-04-26 16:44:13 FLAPS EXTENSION 34 % 44241
2020-04-26 16:44:14 FLAPS EXTENSION 31 % 44241
2020-04-26 16:44:14 FLAPS EXTENSION 29 % 44241
2020-04-26 16:44:14 FLAPS EXTENSION 27 % 44241
2020-04-26 16:44:14 FLAPS EXTENSION 25 % 44241
2020-04-26 16:44:14 FLAPS EXTENSION 23 % 44241
2020-04-26 16:44:22 CRUISE45228
2020-04-26 16:45:42 FLAPS EXTENSION 22 % 53421
2020-04-26 16:45:42 FLAPS EXTENSION 20 % 53423
2020-04-26 16:45:42 FLAPS EXTENSION 18 % 53424
2020-04-26 16:45:42 FLAPS EXTENSION 16 % 53425
2020-04-26 16:45:42 FLAPS EXTENSION 14 % 53426
2020-04-26 16:45:43 FLAPS EXTENSION 13 % 53427
2020-04-26 16:45:52 CLIMBING57494
2020-04-26 16:45:55 FLAPS EXTENSION 10 % 58523
2020-04-26 16:45:55 FLAPS EXTENSION 8 % 58524
2020-04-26 16:45:55 FLAPS EXTENSION 6 % 58526
2020-04-26 16:45:55 FLAPS EXTENSION 4 % 58527
2020-04-26 16:45:55 FLAPS EXTENSION 2 % 58529
2020-04-26 16:45:56 FLAPS EXTENSION 0 % 58531
2020-04-26 16:45:56 FLAPS EXTENSION 0 % 59533
2020-04-26 16:48:02 CRUISE691559
2020-04-26 16:48:32 CLIMBING721700
2020-04-26 16:49:12 CRUISE731786
2020-04-26 16:50:22 CLIMBING752013
2020-04-26 16:51:02 CRUISE872099
2020-04-26 17:07:42 CLIMBING922660
2020-04-26 17:08:32 CRUISE992606
2020-04-26 17:14:42 DESCEND1052209
2020-04-26 17:15:12 CRUISE1022206
2020-04-26 17:17:52 DESCEND1061986
2020-04-26 17:18:22 CRUISE1051959
2020-04-26 17:21:32 DESCEND1081795
2020-04-26 17:24:12 CRUISE1141066
2020-04-26 17:26:32 DESCEND1161141
2020-04-26 17:27:02 CRUISE1111128
2020-04-26 17:28:42 DESCEND1091108
2020-04-26 17:29:42 CRUISE861215
2020-04-26 17:31:54 FLAPS EXTENSION 1 % 671171
2020-04-26 17:31:54 FLAPS EXTENSION 3 % 661170
2020-04-26 17:31:54 FLAPS EXTENSION 7 % 661168
2020-04-26 17:31:54 FLAPS EXTENSION 9 % 661168
2020-04-26 17:31:54 FLAPS EXTENSION 11 % 661167
2020-04-26 17:31:55 FLAPS EXTENSION 15 % 661166
2020-04-26 17:32:02 DESCEND631101
2020-04-26 17:32:02 FLAPS EXTENSION 16 % 631098
2020-04-26 17:32:03 FLAPS EXTENSION 18 % 631097
2020-04-26 17:32:03 FLAPS EXTENSION 20 % 631095
2020-04-26 17:32:03 FLAPS EXTENSION 24 % 621092
2020-04-26 17:32:03 FLAPS EXTENSION 27 % 621090
2020-04-26 17:32:03 FLAPS EXTENSION 29 % 621089
2020-04-26 17:32:04 FLAPS EXTENSION 31 % 621087
2020-04-26 17:32:04 FLAPS EXTENSION 33 % 621086
2020-04-26 17:32:04 FLAPS EXTENSION 36 % 621084
2020-04-26 17:32:46 FLAPS EXTENSION 37 % 59856
2020-04-26 17:32:46 FLAPS EXTENSION 41 % 59855
2020-04-26 17:32:46 FLAPS EXTENSION 43 % 58855
2020-04-26 17:32:47 FLAPS EXTENSION 45 % 58854
2020-04-26 17:32:47 FLAPS EXTENSION 49 % 58854
2020-04-26 17:32:47 FLAPS EXTENSION 53 % 57853
2020-04-26 17:32:47 FLAPS EXTENSION 55 % 57853
2020-04-26 17:32:48 FLAPS EXTENSION 57 % 57852
2020-04-26 17:32:48 FLAPS EXTENSION 59 % 57852
2020-04-26 17:32:48 FLAPS EXTENSION 61 % 57851
2020-04-26 17:32:48 FLAPS EXTENSION 63 % 56851
2020-04-26 17:32:48 FLAPS EXTENSION 65 % 56851
2020-04-26 17:32:48 FLAPS EXTENSION 67 % 56850
2020-04-26 17:32:49 FLAPS EXTENSION 69 % 56850
2020-04-26 17:32:49 FLAPS EXTENSION 71 % 55849
2020-04-26 17:32:49 FLAPS EXTENSION 72 % 55849
2020-04-26 17:32:49 FLAPS EXTENSION 74 % 55849
2020-04-26 17:32:50 FLAPS EXTENSION 82 % 54847
2020-04-26 17:32:50 FLAPS EXTENSION 84 % 54846
2020-04-26 17:33:29 FLAPS EXTENSION 87 % 58878
2020-04-26 17:33:29 FLAPS EXTENSION 89 % 58879
2020-04-26 17:33:29 FLAPS EXTENSION 91 % 59879
2020-04-26 17:33:29 FLAPS EXTENSION 93 % 59880
2020-04-26 17:33:29 FLAPS EXTENSION 95 % 59881
2020-04-26 17:33:29 FLAPS EXTENSION 97 % 59882
2020-04-26 17:33:30 FLAPS EXTENSION 99 % 59882
2020-04-26 17:33:30 FLAPS EXTENSION 100 % 59883
2020-04-26 17:33:32 FLAPS EXTENSION 98 % 59893
2020-04-26 17:33:32 FLAPS EXTENSION 96 % 59894
2020-04-26 17:33:32 FLAPS EXTENSION 95 % 59895
2020-04-26 17:33:32 FLAPS EXTENSION 97 % 59896
2020-04-26 17:33:32 FLAPS EXTENSION 98 % 59897
2020-04-26 17:33:33 FLAPS EXTENSION 100 % 59898
2020-04-26 17:33:33 FLAPS EXTENSION 100 % 59900
2020-04-26 17:33:42 CLIMBING56947
2020-04-26 17:34:12 CRUISE571018
2020-04-26 17:34:42 DESCEND55829
2020-04-26 17:35:12 CRUISE53779
2020-04-26 17:36:22 DESCEND60457
2020-04-26 17:38:02 CRUISE5328
2020-04-26 17:38:09 LANDING5222
2020-04-26 17:38:27 FLAPS EXTENSION 99 % 3919
2020-04-26 17:38:27 FLAPS EXTENSION 96 % 3819
2020-04-26 17:38:27 FLAPS EXTENSION 94 % 3819
2020-04-26 17:38:27 FLAPS EXTENSION 91 % 3819
2020-04-26 17:38:28 FLAPS EXTENSION 89 % 3719
2020-04-26 17:38:28 FLAPS EXTENSION 84 % 3719
2020-04-26 17:38:28 FLAPS EXTENSION 81 % 3619
2020-04-26 17:38:29 FLAPS EXTENSION 79 % 3619
2020-04-26 17:38:29 FLAPS EXTENSION 76 % 3619
2020-04-26 17:38:29 FLAPS EXTENSION 74 % 3519
2020-04-26 17:38:29 FLAPS EXTENSION 71 % 3519
2020-04-26 17:38:30 FLAPS EXTENSION 66 % 3519
2020-04-26 17:38:30 FLAPS EXTENSION 64 % 3419
2020-04-26 17:38:30 FLAPS EXTENSION 61 % 3419
2020-04-26 17:38:30 FLAPS EXTENSION 59 % 3419
2020-04-26 17:38:31 FLAPS EXTENSION 56 % 3419
2020-04-26 17:38:31 FLAPS EXTENSION 54 % 3319
2020-04-26 17:38:31 FLAPS EXTENSION 51 % 3319
2020-04-26 17:38:31 FLAPS EXTENSION 49 % 3319
2020-04-26 17:38:32 FLAPS EXTENSION 46 % 3319
2020-04-26 17:38:32 FLAPS EXTENSION 44 % 3219
2020-04-26 17:38:32 FLAPS EXTENSION 41 % 3219
2020-04-26 17:38:32 FLAPS EXTENSION 41 % 3219
2020-04-26 17:38:32 FLAPS EXTENSION 38 % 3219
2020-04-26 17:38:33 FLAPS EXTENSION 36 % 3219
2020-04-26 17:38:33 FLAPS EXTENSION 33 % 3119
2020-04-26 17:38:33 FLAPS EXTENSION 31 % 3119
2020-04-26 17:38:34 FLAPS EXTENSION 26 % 3119
2020-04-26 17:38:34 FLAPS EXTENSION 23 % 3119
2020-04-26 17:38:34 FLAPS EXTENSION 21 % 3019
2020-04-26 17:38:34 FLAPS EXTENSION 18 % 3019
2020-04-26 17:38:35 FLAPS EXTENSION 16 % 3019
2020-04-26 17:38:35 FLAPS EXTENSION 13 % 3019
2020-04-26 17:38:35 FLAPS EXTENSION 11 % 3019
2020-04-26 17:38:35 FLAPS EXTENSION 8 % 2919
2020-04-26 17:38:36 FLAPS EXTENSION 6 % 2919
2020-04-26 17:38:36 FLAPS EXTENSION 3 % 2919
2020-04-26 17:38:36 FLAPS EXTENSION 1 % 2919
2020-04-26 17:38:36 FLAPS EXTENSION 0 % 2919
2020-04-26 17:38:47 TAXI TO THE GATE2019
2020-04-26 17:43:05 STOPPING ENGINE 1 019
 ACARS DATA
DATE IASGSALTITUDEFUEL CONSUMED OATFLIGHT STATUS
2020-04-26 16:31:090088022BOARDING
2020-04-26 16:32:090088122BOARDING
2020-04-26 16:33:090088222BOARDING
2020-04-26 16:34:090088322BOARDING
2020-04-26 16:35:090088322BOARDING
2020-04-26 16:36:090088422BOARDING
2020-04-26 16:37:09151688522TAXI TO THE RWY
2020-04-26 16:38:090088622TAXI TO THE RWY
2020-04-26 16:37:450188722TAXI TO THE RWY
2020-04-26 16:38:459988822TAXI TO THE RWY
2020-04-26 16:39:450088922TAXI TO THE RWY
2020-04-26 16:40:4500881022TAXI TO THE RWY
2020-04-26 16:41:4500881122TAXI TO THE RWY
2020-04-26 16:42:4500881122TAXI TO THE RWY
2020-04-26 16:43:4548491931322CLIMBING
2020-04-26 16:44:4545462521422CRUISE
2020-04-26 16:45:4554554421622CRUISE
2020-04-26 16:46:45646710291920CLIMBING
2020-04-26 16:47:45666715502119CLIMBING
2020-04-26 16:48:45717317242219CLIMBING
2020-04-26 16:49:45777818412318CRUISE
2020-04-26 16:50:45798020922418CLIMBING
2020-04-26 16:51:45919321472618CRUISE
2020-04-26 16:52:45939522492718CRUISE
2020-04-26 16:53:45959823112917CRUISE
2020-04-26 16:54:459710023143017CRUISE
2020-04-26 16:55:45969823213117CRUISE
2020-04-26 16:56:45959723593217CRUISE
2020-04-26 16:57:45959723803317CRUISE
2020-04-26 16:58:45959824043517CRUISE
2020-04-26 16:59:45959824263617CRUISE
2020-04-26 17:00:45959824543717CRUISE
2020-04-26 17:01:45959824973917CRUISE
2020-04-26 17:02:45959825394017CRUISE
2020-04-26 17:03:45959825744117CRUISE
2020-04-26 17:04:45959826134317CRUISE
2020-04-26 17:05:45959826454417CRUISE
2020-04-26 17:06:4510010326314617CRUISE
2020-04-26 17:07:45919326724717CLIMBING
2020-04-26 17:08:459910225914817CRUISE
2020-04-26 17:09:459910225714917CRUISE
2020-04-26 17:10:4510010325335017CRUISE
2020-04-26 17:11:4510310524225217CRUISE
2020-04-26 17:12:4510310623355317CRUISE
2020-04-26 17:13:4510310522665418CRUISE
2020-04-26 17:14:4510510722005518DESCEND
2020-04-26 17:15:4510510821385718CRUISE
2020-04-26 17:16:4510510720365818CRUISE
2020-04-26 17:17:4510510720125918CRUISE
2020-04-26 17:18:4510710919386118CRUISE
2020-04-26 17:19:4511011317696219CRUISE
2020-04-26 17:20:4510610818516418CRUISE
2020-04-26 17:21:4511111317216519DESCEND
2020-04-26 17:22:4511411613926719DESCEND
2020-04-26 17:23:4511311511426820DESCEND
2020-04-26 17:24:4510911010646920CRUISE
2020-04-26 17:25:4511111310447120CRUISE
2020-04-26 17:26:4511611811037220DESCEND
2020-04-26 17:27:4510610711867420CRUISE
2020-04-26 17:28:4510611011307520DESCEND
2020-04-26 17:29:45868712157620CRUISE
2020-04-26 17:30:45848512957720CRUISE
2020-04-26 17:31:45707112237820CRUISE
2020-04-26 17:32:4560608587921DESCEND
2020-04-26 17:33:4555569558120CLIMBING
2020-04-26 17:34:4554548108221DESCEND
2020-04-26 17:35:4556566678321CRUISE
2020-04-26 17:36:4553533108422DESCEND
2020-04-26 17:37:455858758522DESCEND
2020-04-26 17:38:452222188622LANDED
2020-04-26 17:39:4501188722TAXI TO THE GATE
2020-04-26 17:40:451415188822TAXI TO THE GATE
2020-04-26 17:41:451010198922TAXI TO THE GATE
2020-04-26 17:42:4500189022TAXI TO THE GATE
2020-04-26 17:43:4500189022TAXI TO THE GATE